sensor_id;sensor_type;location;lat;lon;timestamp;P1;durP1;ratioP1;P2;durP2;ratioP2
37771;SDS011;23610;59.380;24.642;2022-10-31T00:04:30;3.72;;;1.60;;
37771;SDS011;23610;59.380;24.642;2022-10-31T00:09:34;2.85;;;1.10;;
37771;SDS011;23610;59.380;24.642;2022-10-31T00:14:38;5.72;;;1.15;;
37771;SDS011;23610;59.380;24.642;2022-10-31T00:19:41;10.80;;;1.67;;
37771;SDS011;23610;59.380;24.642;2022-10-31T00:24:45;3.75;;;1.02;;
37771;SDS011;23610;59.380;24.642;2022-10-31T00:29:48;6.55;;;1.45;;
37771;SDS011;23610;59.380;24.642;2022-10-31T00:34:52;3.33;;;1.00;;
37771;SDS011;23610;59.380;24.642;2022-10-31T00:39:57;4.32;;;0.77;;
37771;SDS011;23610;59.380;24.642;2022-10-31T00:45:01;7.00;;;1.07;;
37771;SDS011;23610;59.380;24.642;2022-10-31T00:50:05;6.32;;;0.80;;
37771;SDS011;23610;59.380;24.642;2022-10-31T00:55:11;2.60;;;0.75;;
37771;SDS011;23610;59.380;24.642;2022-10-31T01:00:15;3.28;;;0.70;;
37771;SDS011;23610;59.380;24.642;2022-10-31T01:05:20;5.63;;;1.10;;
37771;SDS011;23610;59.380;24.642;2022-10-31T01:10:24;6.22;;;1.02;;
37771;SDS011;23610;59.380;24.642;2022-10-31T01:15:29;9.13;;;1.57;;
37771;SDS011;23610;59.380;24.642;2022-10-31T01:20:33;4.40;;;1.17;;
37771;SDS011;23610;59.380;24.642;2022-10-31T01:25:36;5.03;;;1.38;;
37771;SDS011;23610;59.380;24.642;2022-10-31T01:30:39;5.22;;;0.95;;
37771;SDS011;23610;59.380;24.642;2022-10-31T01:35:42;7.03;;;1.10;;
37771;SDS011;23610;59.380;24.642;2022-10-31T01:40:46;3.00;;;1.08;;
37771;SDS011;23610;59.380;24.642;2022-10-31T01:45:51;5.13;;;1.07;;
37771;SDS011;23610;59.380;24.642;2022-10-31T01:50:56;6.00;;;1.05;;
37771;SDS011;23610;59.380;24.642;2022-10-31T01:56:01;2.45;;;0.93;;
37771;SDS011;23610;59.380;24.642;2022-10-31T02:01:05;2.72;;;1.00;;
37771;SDS011;23610;59.380;24.642;2022-10-31T02:06:10;7.45;;;1.95;;
37771;SDS011;23610;59.380;24.642;2022-10-31T02:11:30;4.30;;;1.38;;
37771;SDS011;23610;59.380;24.642;2022-10-31T02:16:34;1.98;;;0.88;;
37771;SDS011;23610;59.380;24.642;2022-10-31T02:21:40;6.40;;;1.60;;
37771;SDS011;23610;59.380;24.642;2022-10-31T02:32:51;2.27;;;0.80;;
37771;SDS011;23610;59.380;24.642;2022-10-31T02:50:18;7.90;;;1.67;;
37771;SDS011;23610;59.380;24.642;2022-10-31T03:00:49;3.53;;;0.80;;
37771;SDS011;23610;59.380;24.642;2022-10-31T03:06:36;5.22;;;0.90;;
37771;SDS011;23610;59.380;24.642;2022-10-31T03:12:49;5.88;;;1.00;;
37771;SDS011;23610;59.380;24.642;2022-10-31T03:18:25;7.63;;;1.35;;
37771;SDS011;23610;59.380;24.642;2022-10-31T03:23:30;5.00;;;1.13;;
37771;SDS011;23610;59.380;24.642;2022-10-31T03:29:11;4.60;;;0.80;;
37771;SDS011;23610;59.380;24.642;2022-10-31T03:34:13;6.38;;;1.10;;
37771;SDS011;23610;59.380;24.642;2022-10-31T03:39:21;6.95;;;1.20;;
37771;SDS011;23610;59.380;24.642;2022-10-31T03:44:27;2.42;;;0.80;;
37771;SDS011;23610;59.380;24.642;2022-10-31T03:49:35;6.97;;;2.25;;
37771;SDS011;23610;59.380;24.642;2022-10-31T03:54:43;2.33;;;1.05;;
37771;SDS011;23610;59.380;24.642;2022-10-31T04:05:21;5.53;;;2.03;;
37771;SDS011;23610;59.380;24.642;2022-10-31T04:10:25;8.88;;;5.43;;
37771;SDS011;23610;59.380;24.642;2022-10-31T04:15:35;7.68;;;2.15;;
37771;SDS011;23610;59.380;24.642;2022-10-31T04:20:40;2.67;;;1.10;;
37771;SDS011;23610;59.380;24.642;2022-10-31T04:25:46;4.35;;;0.95;;
37771;SDS011;23610;59.380;24.642;2022-10-31T04:36:02;4.40;;;1.75;;
37771;SDS011;23610;59.380;24.642;2022-10-31T04:41:06;12.07;;;5.50;;
37771;SDS011;23610;59.380;24.642;2022-10-31T04:46:12;53.30;;;26.98;;
37771;SDS011;23610;59.380;24.642;2022-10-31T06:36:05;14.30;;;5.72;;
37771;SDS011;23610;59.380;24.642;2022-10-31T07:05:16;27.92;;;14.45;;
37771;SDS011;23610;59.380;24.642;2022-10-31T07:10:20;21.13;;;12.00;;
37771;SDS011;23610;59.380;24.642;2022-10-31T07:15:33;19.73;;;10.38;;
37771;SDS011;23610;59.380;24.642;2022-10-31T07:20:38;16.83;;;9.88;;
37771;SDS011;23610;59.380;24.642;2022-10-31T07:25:41;15.45;;;9.55;;
37771;SDS011;23610;59.380;24.642;2022-10-31T07:30:53;12.35;;;7.95;;
37771;SDS011;23610;59.380;24.642;2022-10-31T07:35:57;18.35;;;8.70;;
37771;SDS011;23610;59.380;24.642;2022-10-31T07:41:04;12.55;;;8.07;;
37771;SDS011;23610;59.380;24.642;2022-10-31T07:46:12;18.20;;;7.70;;
37771;SDS011;23610;59.380;24.642;2022-10-31T07:51:33;9.05;;;5.18;;
37771;SDS011;23610;59.380;24.642;2022-10-31T07:57:14;9.48;;;3.15;;
37771;SDS011;23610;59.380;24.642;2022-10-31T08:02:23;4.90;;;3.55;;
37771;SDS011;23610;59.380;24.642;2022-10-31T08:07:55;9.27;;;4.32;;
37771;SDS011;23610;59.380;24.642;2022-10-31T08:13:04;9.87;;;4.00;;
37771;SDS011;23610;59.380;24.642;2022-10-31T08:18:12;10.75;;;5.05;;
37771;SDS011;23610;59.380;24.642;2022-10-31T08:23:16;7.43;;;3.40;;
37771;SDS011;23610;59.380;24.642;2022-10-31T08:28:19;6.22;;;2.50;;
37771;SDS011;23610;59.380;24.642;2022-10-31T08:33:24;6.03;;;2.05;;
37771;SDS011;23610;59.380;24.642;2022-10-31T08:38:42;8.35;;;2.88;;
37771;SDS011;23610;59.380;24.642;2022-10-31T08:43:46;20.25;;;7.60;;
37771;SDS011;23610;59.380;24.642;2022-10-31T08:48:49;12.15;;;4.53;;
37771;SDS011;23610;59.380;24.642;2022-10-31T08:53:53;6.72;;;2.88;;
37771;SDS011;23610;59.380;24.642;2022-10-31T08:59:18;9.32;;;1.55;;
37771;SDS011;23610;59.380;24.642;2022-10-31T09:04:59;7.50;;;1.85;;
37771;SDS011;23610;59.380;24.642;2022-10-31T09:10:03;5.85;;;2.08;;
37771;SDS011;23610;59.380;24.642;2022-10-31T09:15:09;11.50;;;2.53;;
37771;SDS011;23610;59.380;24.642;2022-10-31T09:20:20;6.35;;;2.05;;
37771;SDS011;23610;59.380;24.642;2022-10-31T09:25:24;7.13;;;1.43;;
37771;SDS011;23610;59.380;24.642;2022-10-31T09:30:48;7.05;;;3.10;;
37771;SDS011;23610;59.380;24.642;2022-10-31T09:36:13;8.30;;;2.70;;
37771;SDS011;23610;59.380;24.642;2022-10-31T09:52:50;4.07;;;0.93;;
37771;SDS011;23610;59.380;24.642;2022-10-31T09:58:13;8.95;;;1.00;;
37771;SDS011;23610;59.380;24.642;2022-10-31T10:09:02;4.43;;;1.42;;
37771;SDS011;23610;59.380;24.642;2022-10-31T10:25:22;5.32;;;1.35;;
37771;SDS011;23610;59.380;24.642;2022-10-31T10:30:32;6.10;;;1.98;;
37771;SDS011;23610;59.380;24.642;2022-10-31T10:35:47;2.92;;;1.15;;
37771;SDS011;23610;59.380;24.642;2022-10-31T10:40:59;3.25;;;1.13;;
37771;SDS011;23610;59.380;24.642;2022-10-31T10:58:02;5.30;;;1.00;;
37771;SDS011;23610;59.380;24.642;2022-10-31T11:03:13;7.13;;;1.85;;
37771;SDS011;23610;59.380;24.642;2022-10-31T11:08:24;3.95;;;1.38;;
37771;SDS011;23610;59.380;24.642;2022-10-31T11:13:35;7.45;;;2.08;;
37771;SDS011;23610;59.380;24.642;2022-10-31T11:18:44;4.78;;;1.00;;
37771;SDS011;23610;59.380;24.642;2022-10-31T11:23:48;3.50;;;1.75;;
37771;SDS011;23610;59.380;24.642;2022-10-31T11:28:57;2.83;;;1.77;;
37771;SDS011;23610;59.380;24.642;2022-10-31T11:34:05;4.72;;;1.38;;
37771;SDS011;23610;59.380;24.642;2022-10-31T11:39:38;21.23;;;7.80;;
37771;SDS011;23610;59.380;24.642;2022-10-31T11:44:45;35.35;;;11.43;;
37771;SDS011;23610;59.380;24.642;2022-10-31T11:49:47;9.45;;;3.10;;
37771;SDS011;23610;59.380;24.642;2022-10-31T11:54:55;26.27;;;6.20;;
37771;SDS011;23610;59.380;24.642;2022-10-31T12:05:34;7.80;;;1.48;;
37771;SDS011;23610;59.380;24.642;2022-10-31T12:10:50;4.53;;;1.40;;
37771;SDS011;23610;59.380;24.642;2022-10-31T13:00:12;6.65;;;3.35;;
37771;SDS011;23610;59.380;24.642;2022-10-31T13:05:42;8.68;;;3.17;;
37771;SDS011;23610;59.380;24.642;2022-10-31T13:11:00;6.10;;;2.55;;
37771;SDS011;23610;59.380;24.642;2022-10-31T13:27:13;5.63;;;2.60;;
37771;SDS011;23610;59.380;24.642;2022-10-31T13:32:35;9.90;;;4.05;;
37771;SDS011;23610;59.380;24.642;2022-10-31T13:38:05;6.00;;;3.17;;
37771;SDS011;23610;59.380;24.642;2022-10-31T13:48:36;8.50;;;2.95;;
37771;SDS011;23610;59.380;24.642;2022-10-31T13:53:45;13.07;;;3.15;;
37771;SDS011;23610;59.380;24.642;2022-10-31T14:09:56;5.20;;;3.05;;
37771;SDS011;23610;59.380;24.642;2022-10-31T14:15:29;7.03;;;3.38;;
37771;SDS011;23610;59.380;24.642;2022-10-31T14:25:42;8.35;;;2.58;;
37771;SDS011;23610;59.380;24.642;2022-10-31T14:36:04;3.13;;;2.17;;
37771;SDS011;23610;59.380;24.642;2022-10-31T14:41:31;7.45;;;2.40;;
37771;SDS011;23610;59.380;24.642;2022-10-31T14:52:22;7.78;;;4.28;;
37771;SDS011;23610;59.380;24.642;2022-10-31T14:57:28;11.50;;;4.32;;
37771;SDS011;23610;59.380;24.642;2022-10-31T15:08:54;13.82;;;6.80;;
37771;SDS011;23610;59.380;24.642;2022-10-31T15:25:28;14.45;;;7.50;;
37771;SDS011;23610;59.380;24.642;2022-10-31T15:30:36;13.30;;;7.35;;
37771;SDS011;23610;59.380;24.642;2022-10-31T15:35:38;10.25;;;5.57;;
37771;SDS011;23610;59.380;24.642;2022-10-31T15:40:50;14.27;;;4.25;;
37771;SDS011;23610;59.380;24.642;2022-10-31T15:51:00;6.82;;;2.88;;
37771;SDS011;23610;59.380;24.642;2022-10-31T15:56:05;5.90;;;2.58;;
37771;SDS011;23610;59.380;24.642;2022-10-31T16:01:19;5.68;;;3.08;;
37771;SDS011;23610;59.380;24.642;2022-10-31T16:06:30;4.30;;;3.00;;
37771;SDS011;23610;59.380;24.642;2022-10-31T16:11:37;8.55;;;2.85;;
37771;SDS011;23610;59.380;24.642;2022-10-31T16:16:44;8.77;;;2.70;;
37771;SDS011;23610;59.380;24.642;2022-10-31T16:22:02;10.75;;;5.05;;
37771;SDS011;23610;59.380;24.642;2022-10-31T16:27:19;19.38;;;9.75;;
37771;SDS011;23610;59.380;24.642;2022-10-31T16:32:32;33.60;;;20.13;;
37771;SDS011;23610;59.380;24.642;2022-10-31T16:37:37;21.73;;;15.07;;
37771;SDS011;23610;59.380;24.642;2022-10-31T16:42:43;21.05;;;11.25;;
37771;SDS011;23610;59.380;24.642;2022-10-31T16:47:47;19.27;;;11.75;;
37771;SDS011;23610;59.380;24.642;2022-10-31T16:52:50;34.95;;;14.32;;
37771;SDS011;23610;59.380;24.642;2022-10-31T16:58:14;39.63;;;15.82;;
37771;SDS011;23610;59.380;24.642;2022-10-31T17:03:32;21.88;;;9.15;;
37771;SDS011;23610;59.380;24.642;2022-10-31T17:08:34;23.60;;;10.90;;
37771;SDS011;23610;59.380;24.642;2022-10-31T17:13:37;29.65;;;16.92;;
37771;SDS011;23610;59.380;24.642;2022-10-31T17:18:40;14.43;;;7.20;;
37771;SDS011;23610;59.380;24.642;2022-10-31T17:23:44;10.35;;;5.18;;
37771;SDS011;23610;59.380;24.642;2022-10-31T17:28:46;7.13;;;3.08;;
37771;SDS011;23610;59.380;24.642;2022-10-31T17:33:50;8.10;;;3.70;;
37771;SDS011;23610;59.380;24.642;2022-10-31T17:39:02;9.05;;;3.97;;
37771;SDS011;23610;59.380;24.642;2022-10-31T17:44:09;8.15;;;4.28;;
37771;SDS011;23610;59.380;24.642;2022-10-31T17:49:16;9.10;;;4.22;;
37771;SDS011;23610;59.380;24.642;2022-10-31T17:54:19;7.25;;;4.18;;
37771;SDS011;23610;59.380;24.642;2022-10-31T17:59:23;6.45;;;3.42;;
37771;SDS011;23610;59.380;24.642;2022-10-31T18:04:31;6.57;;;2.85;;
37771;SDS011;23610;59.380;24.642;2022-10-31T18:09:34;9.40;;;3.05;;
37771;SDS011;23610;59.380;24.642;2022-10-31T18:14:37;7.35;;;3.15;;
37771;SDS011;23610;59.380;24.642;2022-10-31T18:19:39;12.73;;;3.72;;
37771;SDS011;23610;59.380;24.642;2022-10-31T18:24:42;6.70;;;2.67;;
37771;SDS011;23610;59.380;24.642;2022-10-31T18:29:47;9.32;;;2.58;;
37771;SDS011;23610;59.380;24.642;2022-10-31T18:34:50;10.63;;;3.78;;
37771;SDS011;23610;59.380;24.642;2022-10-31T18:39:54;10.23;;;4.75;;
37771;SDS011;23610;59.380;24.642;2022-10-31T18:44:58;6.60;;;3.70;;
37771;SDS011;23610;59.380;24.642;2022-10-31T18:50:17;7.95;;;3.50;;
37771;SDS011;23610;59.380;24.642;2022-10-31T18:55:21;9.38;;;3.00;;
37771;SDS011;23610;59.380;24.642;2022-10-31T19:00:24;5.38;;;3.08;;
37771;SDS011;23610;59.380;24.642;2022-10-31T19:05:26;4.70;;;2.92;;
37771;SDS011;23610;59.380;24.642;2022-10-31T19:10:29;5.25;;;2.60;;
37771;SDS011;23610;59.380;24.642;2022-10-31T19:15:32;6.70;;;2.60;;
37771;SDS011;23610;59.380;24.642;2022-10-31T19:20:37;8.43;;;2.38;;
37771;SDS011;23610;59.380;24.642;2022-10-31T19:25:40;7.03;;;2.33;;
37771;SDS011;23610;59.380;24.642;2022-10-31T19:30:51;10.32;;;2.70;;
37771;SDS011;23610;59.380;24.642;2022-10-31T19:41:40;8.38;;;2.88;;
37771;SDS011;23610;59.380;24.642;2022-10-31T19:46:43;9.10;;;3.33;;
37771;SDS011;23610;59.380;24.642;2022-10-31T19:51:54;13.95;;;3.22;;
37771;SDS011;23610;59.380;24.642;2022-10-31T19:56:57;8.93;;;2.58;;
37771;SDS011;23610;59.380;24.642;2022-10-31T20:01:59;12.43;;;2.70;;
37771;SDS011;23610;59.380;24.642;2022-10-31T20:07:02;8.30;;;2.85;;
37771;SDS011;23610;59.380;24.642;2022-10-31T20:12:05;8.40;;;2.60;;
37771;SDS011;23610;59.380;24.642;2022-10-31T20:17:08;8.63;;;3.42;;
37771;SDS011;23610;59.380;24.642;2022-10-31T20:22:11;10.70;;;3.88;;
37771;SDS011;23610;59.380;24.642;2022-10-31T20:27:13;12.88;;;3.67;;
37771;SDS011;23610;59.380;24.642;2022-10-31T20:32:16;12.95;;;3.05;;
37771;SDS011;23610;59.380;24.642;2022-10-31T20:37:20;6.95;;;3.20;;
37771;SDS011;23610;59.380;24.642;2022-10-31T20:42:24;13.50;;;3.33;;
37771;SDS011;23610;59.380;24.642;2022-10-31T20:47:26;5.28;;;2.50;;
37771;SDS011;23610;59.380;24.642;2022-10-31T20:52:29;5.18;;;2.72;;
37771;SDS011;23610;59.380;24.642;2022-10-31T20:57:32;7.70;;;2.95;;
37771;SDS011;23610;59.380;24.642;2022-10-31T21:02:39;4.10;;;2.30;;
37771;SDS011;23610;59.380;24.642;2022-10-31T21:07:43;3.78;;;2.17;;
37771;SDS011;23610;59.380;24.642;2022-10-31T21:12:46;10.13;;;2.78;;
37771;SDS011;23610;59.380;24.642;2022-10-31T21:17:49;7.93;;;3.13;;
37771;SDS011;23610;59.380;24.642;2022-10-31T21:22:52;13.70;;;3.15;;
37771;SDS011;23610;59.380;24.642;2022-10-31T21:27:57;8.75;;;2.92;;
37771;SDS011;23610;59.380;24.642;2022-10-31T21:33:04;7.53;;;2.90;;
37771;SDS011;23610;59.380;24.642;2022-10-31T21:38:09;9.75;;;3.22;;
37771;SDS011;23610;59.380;24.642;2022-10-31T21:43:12;5.40;;;2.63;;
37771;SDS011;23610;59.380;24.642;2022-10-31T21:48:15;8.05;;;4.10;;
37771;SDS011;23610;59.380;24.642;2022-10-31T21:53:18;8.90;;;3.63;;
37771;SDS011;23610;59.380;24.642;2022-10-31T21:58:39;11.32;;;3.47;;
37771;SDS011;23610;59.380;24.642;2022-10-31T22:03:42;14.15;;;4.13;;
37771;SDS011;23610;59.380;24.642;2022-10-31T22:08:44;10.23;;;4.20;;
37771;SDS011;23610;59.380;24.642;2022-10-31T22:13:47;29.40;;;5.03;;
37771;SDS011;23610;59.380;24.642;2022-10-31T22:18:51;20.15;;;4.13;;
37771;SDS011;23610;59.380;24.642;2022-10-31T22:23:57;12.02;;;4.78;;
37771;SDS011;23610;59.380;24.642;2022-10-31T22:29:06;12.63;;;4.10;;
37771;SDS011;23610;59.380;24.642;2022-10-31T22:34:15;20.45;;;4.45;;
37771;SDS011;23610;59.380;24.642;2022-10-31T22:39:19;23.13;;;4.70;;
37771;SDS011;23610;59.380;24.642;2022-10-31T22:44:21;19.17;;;5.00;;
37771;SDS011;23610;59.380;24.642;2022-10-31T22:49:24;14.27;;;4.93;;
37771;SDS011;23610;59.380;24.642;2022-10-31T22:54:27;16.85;;;5.28;;
37771;SDS011;23610;59.380;24.642;2022-10-31T22:59:31;13.23;;;5.30;;
37771;SDS011;23610;59.380;24.642;2022-10-31T23:04:34;9.07;;;5.35;;
37771;SDS011;23610;59.380;24.642;2022-10-31T23:09:36;17.52;;;5.93;;
37771;SDS011;23610;59.380;24.642;2022-10-31T23:14:39;20.00;;;7.50;;
37771;SDS011;23610;59.380;24.642;2022-10-31T23:19:41;20.15;;;6.50;;
37771;SDS011;23610;59.380;24.642;2022-10-31T23:24:45;20.55;;;6.43;;
37771;SDS011;23610;59.380;24.642;2022-10-31T23:29:49;21.60;;;6.85;;
37771;SDS011;23610;59.380;24.642;2022-10-31T23:34:59;22.83;;;7.07;;
37771;SDS011;23610;59.380;24.642;2022-10-31T23:40:08;19.13;;;6.85;;
37771;SDS011;23610;59.380;24.642;2022-10-31T23:45:11;21.58;;;7.72;;
37771;SDS011;23610;59.380;24.642;2022-10-31T23:50:14;17.38;;;6.97;;
37771;SDS011;23610;59.380;24.642;2022-10-31T23:55:16;19.73;;;7.68;;
